createdAt,value
2022-10-24T00:01:21.030Z,4.22
2022-10-24T00:03:49.400Z,4.47
2022-10-24T00:06:17.626Z,3.83
2022-10-24T00:08:45.146Z,4.13
2022-10-24T00:11:15.453Z,4.50
2022-10-24T00:13:42.944Z,3.90
2022-10-24T00:16:11.239Z,4.22
2022-10-24T00:18:38.391Z,4.00
2022-10-24T00:21:05.827Z,3.97
2022-10-24T00:23:33.013Z,4.45
2022-10-24T00:26:04.439Z,3.88
2022-10-24T00:31:00.372Z,3.65
2022-10-24T00:33:27.687Z,3.65
2022-10-24T00:35:54.980Z,3.53
2022-10-24T00:38:22.110Z,3.60
2022-10-24T00:40:49.373Z,2.85
2022-10-24T00:43:20.508Z,3.08
2022-10-24T00:45:56.995Z,3.22
2022-10-24T00:48:36.084Z,3.35
2022-10-24T00:51:16.696Z,3.45
2022-10-24T00:53:47.898Z,3.25
2022-10-24T00:56:16.851Z,3.22
2022-10-24T00:58:45.083Z,3.40
2022-10-24T01:01:13.204Z,2.53
2022-10-24T01:03:40.566Z,3.20
2022-10-24T01:06:13.216Z,3.03
2022-10-24T01:09:03.735Z,3.28
2022-10-24T01:11:57.488Z,3.67
2022-10-24T01:14:30.371Z,3.17
2022-10-24T01:17:04.059Z,3.75
2022-10-24T01:20:03.605Z,3.10
2022-10-24T01:22:57.632Z,2.88
2022-10-24T01:25:39.125Z,3.20
2022-10-24T01:28:13.803Z,3.40
2022-10-24T01:30:48.037Z,3.13
2022-10-24T01:33:46.013Z,3.30
2022-10-24T01:36:27.040Z,3.17
2022-10-24T01:39:01.113Z,3.20
2022-10-24T01:41:31.041Z,3.08
2022-10-24T01:44:14.016Z,3.05
2022-10-24T01:46:55.113Z,3.38
2022-10-24T01:49:29.958Z,3.25
2022-10-24T01:52:01.147Z,3.13
2022-10-24T01:54:29.921Z,2.83
2022-10-24T01:56:57.090Z,3.30
2022-10-24T01:59:29.904Z,3.40
2022-10-24T02:02:31.398Z,2.78
2022-10-24T02:05:21.632Z,3.15
2022-10-24T02:08:00.081Z,2.97
2022-10-24T02:10:31.234Z,2.80
2022-10-24T02:13:03.787Z,3.38
2022-10-24T02:15:37.145Z,3.10
2022-10-24T02:18:04.419Z,2.92
2022-10-24T02:20:44.210Z,3.70
2022-10-24T02:23:21.400Z,3.40
2022-10-24T02:25:52.539Z,3.22
2022-10-24T02:28:26.122Z,3.15
2022-10-24T02:30:59.530Z,3.50
2022-10-24T02:33:28.854Z,3.33
2022-10-24T02:35:57.180Z,3.10
2022-10-24T02:38:33.060Z,3.03
2022-10-24T02:41:04.701Z,3.03
2022-10-24T02:43:33.288Z,3.10
2022-10-24T02:46:00.794Z,3.47
2022-10-24T02:48:33.278Z,3.50
2022-10-24T02:51:01.212Z,3.28
2022-10-24T02:53:28.808Z,2.90
2022-10-24T02:55:56.239Z,3.20
2022-10-24T02:58:23.296Z,3.50
2022-10-24T03:00:50.662Z,3.47
2022-10-24T03:03:17.877Z,3.42
2022-10-24T03:05:45.047Z,3.50
2022-10-24T03:08:13.285Z,3.05
2022-10-24T03:10:40.464Z,3.45
2022-10-24T03:13:07.885Z,3.28
2022-10-24T03:15:35.094Z,3.33
2022-10-24T03:18:02.361Z,2.80
2022-10-24T03:20:29.789Z,3.33
2022-10-24T03:22:56.907Z,2.78
2022-10-24T03:25:24.197Z,3.15
2022-10-24T03:27:51.397Z,3.60
2022-10-24T03:30:18.695Z,2.63
2022-10-24T03:32:46.391Z,2.70
2022-10-24T03:35:14.396Z,3.42
2022-10-24T03:37:42.066Z,3.30
2022-10-24T03:40:10.944Z,2.88
2022-10-24T03:42:38.342Z,3.05
2022-10-24T03:45:06.219Z,3.03
2022-10-24T03:47:33.534Z,2.70
2022-10-24T03:50:00.716Z,3.28
2022-10-24T03:52:28.206Z,3.08
2022-10-24T03:54:55.265Z,3.15
2022-10-24T03:57:22.867Z,3.03
2022-10-24T03:59:50.083Z,3.50
2022-10-24T04:02:17.147Z,3.00
2022-10-24T04:04:44.445Z,2.95
2022-10-24T04:07:11.551Z,3.45
2022-10-24T04:09:38.722Z,2.92
2022-10-24T04:12:06.288Z,3.13
2022-10-24T04:14:33.394Z,3.22
2022-10-24T04:17:00.675Z,3.40
2022-10-24T04:19:27.864Z,2.80
2022-10-24T04:21:55.044Z,2.97
2022-10-24T04:24:22.171Z,3.15
2022-10-24T04:26:49.380Z,3.30
2022-10-24T04:29:16.738Z,3.80
2022-10-24T04:31:43.829Z,3.90
2022-10-24T04:34:11.013Z,3.60
2022-10-24T04:36:38.169Z,3.55
2022-10-24T04:39:05.792Z,3.65
2022-10-24T04:41:33.330Z,3.45
2022-10-24T04:44:00.458Z,3.58
2022-10-24T04:46:27.780Z,3.55
2022-10-24T04:48:54.941Z,3.20
2022-10-24T04:51:22.705Z,2.80
2022-10-24T04:53:51.272Z,4.10
2022-10-24T04:56:19.834Z,3.30
2022-10-24T04:58:47.217Z,4.45
2022-10-24T05:01:14.645Z,2.88
2022-10-24T05:03:41.832Z,2.90
2022-10-24T05:06:08.974Z,3.63
2022-10-24T05:08:36.456Z,3.03
2022-10-24T05:11:04.288Z,3.25
2022-10-24T05:13:34.339Z,3.03
2022-10-24T05:16:04.113Z,3.22
2022-10-24T05:18:31.461Z,3.20
2022-10-24T05:21:00.297Z,3.42
2022-10-24T05:23:27.499Z,3.20
2022-10-24T05:25:54.770Z,3.17
2022-10-24T05:28:21.881Z,2.95
2022-10-24T05:30:49.013Z,3.10
2022-10-24T05:33:16.348Z,2.85
2022-10-24T05:35:43.730Z,3.50
2022-10-24T05:38:10.779Z,3.17
2022-10-24T05:40:37.832Z,2.95
2022-10-24T05:43:04.882Z,2.85
2022-10-24T05:45:32.189Z,3.15
2022-10-24T05:47:59.232Z,2.95
2022-10-24T05:50:27.242Z,2.90
2022-10-24T05:52:54.507Z,3.08
2022-10-24T05:55:21.564Z,3.17
2022-10-24T05:57:48.894Z,2.90
2022-10-24T06:00:17.259Z,3.22
2022-10-24T06:05:17.189Z,2.67
2022-10-24T06:07:45.110Z,2.90
2022-10-24T06:10:13.770Z,2.78
2022-10-24T06:12:41.786Z,2.90
2022-10-24T06:15:10.987Z,2.97
2022-10-24T06:17:38.112Z,2.63
2022-10-24T06:20:05.592Z,3.05
2022-10-24T06:22:32.895Z,2.78
2022-10-24T06:25:00.325Z,2.60
2022-10-24T06:27:27.912Z,2.60
2022-10-24T06:29:54.977Z,3.03
2022-10-24T06:32:22.216Z,2.42
2022-10-24T06:34:49.438Z,2.45
2022-10-24T06:37:16.472Z,2.75
2022-10-24T06:39:43.527Z,2.55
2022-10-24T06:42:10.685Z,2.42
2022-10-24T06:44:38.711Z,3.28
2022-10-24T06:47:06.554Z,2.40
2022-10-24T06:49:33.694Z,2.80
2022-10-24T06:52:00.734Z,2.50
2022-10-24T06:54:30.203Z,2.28
2022-10-24T06:56:57.973Z,2.38
2022-10-24T06:59:25.178Z,3.00
2022-10-24T07:01:52.652Z,2.72
2022-10-24T07:04:19.803Z,3.10
2022-10-24T07:06:47.116Z,2.50
2022-10-24T07:09:15.610Z,2.67
2022-10-24T07:11:43.526Z,2.65
2022-10-24T07:14:11.140Z,2.60
2022-10-24T07:16:39.360Z,2.88
2022-10-24T07:19:07.174Z,2.80
2022-10-24T07:21:34.662Z,2.53
2022-10-24T07:24:02.013Z,2.65
2022-10-24T07:26:30.609Z,2.50
2022-10-24T07:31:30.788Z,2.40
2022-10-24T07:33:58.585Z,2.63
2022-10-24T07:36:26.863Z,2.53
2022-10-24T07:38:56.935Z,2.53
2022-10-24T07:41:25.355Z,2.70
2022-10-24T07:43:53.287Z,2.33
2022-10-24T07:46:20.971Z,3.15
2022-10-24T07:48:50.589Z,2.90
2022-10-24T07:51:18.630Z,2.40
2022-10-24T07:53:45.715Z,2.45
2022-10-24T07:56:15.850Z,2.47
2022-10-24T07:58:44.468Z,2.65
2022-10-24T08:01:23.433Z,2.55
2022-10-24T08:03:50.972Z,3.22
2022-10-24T08:06:20.908Z,2.65
2022-10-24T08:08:48.411Z,2.58
2022-10-24T08:11:24.720Z,2.42
2022-10-24T08:13:53.942Z,2.83
2022-10-24T08:16:23.183Z,2.90
2022-10-24T08:18:51.613Z,2.67
2022-10-24T08:21:20.999Z,3.10
2022-10-24T08:23:50.965Z,3.28
2022-10-24T08:26:20.272Z,2.95
2022-10-24T08:28:48.241Z,3.15
2022-10-24T08:31:18.978Z,3.08
2022-10-24T08:33:46.824Z,2.83
2022-10-24T08:36:22.988Z,2.72
2022-10-24T08:38:50.501Z,2.83
2022-10-24T08:41:43.845Z,2.92
2022-10-24T08:44:24.004Z,2.88
2022-10-24T08:46:50.984Z,2.60
2022-10-24T08:49:26.691Z,3.20
2022-10-24T08:52:02.516Z,2.58
2022-10-24T08:54:42.927Z,3.00
2022-10-24T08:57:21.233Z,2.55
2022-10-24T08:59:49.171Z,2.67
2022-10-24T09:02:26.148Z,2.80
2022-10-24T09:04:58.962Z,2.40
2022-10-24T09:07:26.740Z,3.13
2022-10-24T09:10:23.398Z,2.83
2022-10-24T09:12:50.733Z,2.45
2022-10-24T09:15:26.270Z,3.00
2022-10-24T09:17:55.069Z,2.60
2022-10-24T09:20:25.849Z,2.70
2022-10-24T09:22:55.780Z,2.42
2022-10-24T09:25:25.980Z,2.70
2022-10-24T09:27:53.186Z,2.40
2022-10-24T09:30:28.682Z,2.70
2022-10-24T09:33:13.167Z,2.55
2022-10-24T09:38:33.952Z,2.42
2022-10-24T09:41:07.151Z,3.00
2022-10-24T09:43:56.646Z,2.70
2022-10-24T09:46:37.399Z,2.65
2022-10-24T09:49:13.134Z,3.00
2022-10-24T09:51:45.653Z,2.72
2022-10-24T09:54:18.901Z,2.60
2022-10-24T09:57:02.546Z,2.42
2022-10-24T09:59:35.540Z,2.95
2022-10-24T10:02:24.820Z,2.85
2022-10-24T10:05:19.542Z,2.70
2022-10-24T10:07:48.864Z,2.53
2022-10-24T10:10:19.068Z,2.80
2022-10-24T10:12:56.810Z,2.85
2022-10-24T10:15:46.582Z,3.30
2022-10-24T10:18:40.600Z,2.97
2022-10-24T10:21:14.824Z,2.70
2022-10-24T10:23:50.780Z,3.00
2022-10-24T10:26:41.073Z,2.85
2022-10-24T10:29:17.111Z,2.78
2022-10-24T10:31:50.934Z,2.95
2022-10-24T10:34:41.240Z,3.13
2022-10-24T10:37:14.454Z,2.90
2022-10-24T10:40:03.122Z,2.65
2022-10-24T10:42:59.824Z,3.10
2022-10-24T10:45:40.083Z,3.53
2022-10-24T10:48:18.959Z,2.75
2022-10-24T10:51:10.889Z,3.30
2022-10-24T10:53:38.374Z,3.03
2022-10-24T10:56:25.355Z,3.10
2022-10-24T10:59:17.002Z,3.60
2022-10-24T11:01:44.281Z,3.60
2022-10-24T11:04:38.089Z,3.35
2022-10-24T11:07:10.938Z,3.38
2022-10-24T11:09:44.782Z,3.35
2022-10-24T11:12:36.273Z,3.20
2022-10-24T11:15:15.442Z,3.50
2022-10-24T11:17:53.553Z,3.58
2022-10-24T11:21:06.907Z,3.47
2022-10-24T11:23:45.130Z,3.15
2022-10-24T11:26:47.815Z,3.90
2022-10-24T11:29:22.536Z,3.88
2022-10-24T11:32:16.290Z,3.95
2022-10-24T11:34:50.922Z,3.60
2022-10-24T11:37:37.795Z,3.70
2022-10-24T11:40:12.507Z,3.70
2022-10-24T11:43:13.049Z,3.30
2022-10-24T11:45:51.612Z,3.75
2022-10-24T11:48:28.148Z,3.60
2022-10-24T11:51:03.206Z,3.38
2022-10-24T11:53:33.307Z,3.53
2022-10-24T11:56:27.186Z,3.60
2022-10-24T11:59:02.434Z,3.75
2022-10-24T12:01:38.853Z,3.35
2022-10-24T12:04:11.994Z,3.22
2022-10-24T12:07:11.084Z,3.10
2022-10-24T12:10:17.805Z,2.95
2022-10-24T12:12:55.576Z,3.13
2022-10-24T12:15:41.405Z,3.08
2022-10-24T12:18:34.212Z,3.03
2022-10-24T12:21:06.334Z,2.90
2022-10-24T12:23:34.015Z,2.75
2022-10-24T12:26:31.566Z,2.80
2022-10-24T12:29:01.423Z,2.92
2022-10-24T12:31:37.978Z,2.80
2022-10-24T12:34:18.174Z,2.95
2022-10-24T12:37:25.454Z,3.20
2022-10-24T12:39:57.819Z,2.85
2022-10-24T12:42:25.748Z,3.13
2022-10-24T12:45:12.973Z,3.75
2022-10-24T12:48:03.937Z,3.67
2022-10-24T12:50:30.942Z,3.63
2022-10-24T12:52:58.021Z,3.85
2022-10-24T12:55:39.751Z,3.88
2022-10-24T12:58:30.669Z,3.80
2022-10-24T13:01:18.563Z,4.03
2022-10-24T13:03:54.452Z,3.67
2022-10-24T13:06:46.111Z,4.03
2022-10-24T13:09:26.561Z,3.78
2022-10-24T13:12:16.495Z,3.67
2022-10-24T13:15:15.131Z,3.78
2022-10-24T13:17:45.400Z,4.88
2022-10-24T13:20:21.566Z,4.53
2022-10-24T13:22:51.108Z,4.68
2022-10-24T13:25:39.311Z,4.50
2022-10-24T13:28:22.815Z,4.65
2022-10-24T13:31:10.579Z,5.15
2022-10-24T13:33:42.864Z,4.50
2022-10-24T13:36:10.080Z,4.72
2022-10-24T13:38:48.151Z,4.75
2022-10-24T13:41:31.138Z,5.38
2022-10-24T13:44:10.520Z,4.90
2022-10-24T13:46:48.963Z,5.30
2022-10-24T13:49:52.803Z,5.38
2022-10-24T13:52:26.368Z,5.47
2022-10-24T13:54:59.905Z,5.22
2022-10-24T13:57:37.689Z,5.85
2022-10-24T14:00:17.964Z,5.60
2022-10-24T14:02:45.981Z,6.00
2022-10-24T14:05:35.004Z,6.45
2022-10-24T14:08:02.668Z,6.50
2022-10-24T14:10:30.881Z,6.40
2022-10-24T14:12:59.522Z,5.82
2022-10-24T14:15:29.973Z,6.22
2022-10-24T14:18:14.635Z,6.32
2022-10-24T14:20:42.403Z,6.95
2022-10-24T14:23:29.915Z,6.55
2022-10-24T14:26:17.834Z,5.78
2022-10-24T14:28:58.658Z,6.80
2022-10-24T14:31:35.027Z,7.18
2022-10-24T14:34:06.237Z,6.78
2022-10-24T14:36:36.835Z,7.53
2022-10-24T14:39:05.146Z,7.25
2022-10-24T14:41:35.382Z,8.23
2022-10-24T14:44:02.868Z,7.47
2022-10-24T14:46:34.798Z,7.43
2022-10-24T14:49:22.699Z,8.75
2022-10-24T14:54:31.811Z,8.13
2022-10-24T14:57:00.961Z,7.13
2022-10-24T14:59:35.493Z,7.25
2022-10-24T15:02:17.983Z,6.10
2022-10-24T15:04:45.994Z,5.43
2022-10-24T15:07:37.320Z,5.85
2022-10-24T15:10:12.925Z,6.43
2022-10-24T15:12:54.764Z,6.28
2022-10-24T15:15:34.565Z,7.10
2022-10-24T15:18:10.257Z,7.82
2022-10-24T15:20:40.576Z,7.70
2022-10-24T15:23:20.951Z,7.38
2022-10-24T15:26:11.019Z,7.40
2022-10-24T15:28:54.281Z,7.10
2022-10-24T15:31:22.128Z,6.88
2022-10-24T15:33:49.536Z,7.07
2022-10-24T15:36:26.377Z,6.47
2022-10-24T15:39:03.132Z,6.45
2022-10-24T15:41:30.328Z,6.00
2022-10-24T15:43:58.306Z,6.18
2022-10-24T15:46:26.570Z,6.15
2022-10-24T15:48:53.717Z,6.28
2022-10-24T15:51:23.680Z,5.90
2022-10-24T15:53:51.719Z,6.32
2022-10-24T15:56:18.902Z,5.90
2022-10-24T15:58:46.071Z,5.80
2022-10-24T16:01:29.666Z,5.55
2022-10-24T16:03:58.488Z,6.22
2022-10-24T16:06:27.529Z,5.05
2022-10-24T16:08:55.713Z,5.30
2022-10-24T16:11:23.353Z,5.55
2022-10-24T16:13:50.476Z,5.15
2022-10-24T16:16:17.959Z,5.65
2022-10-24T16:18:45.284Z,5.43
2022-10-24T16:21:22.240Z,5.65
2022-10-24T16:26:21.815Z,5.78
2022-10-24T16:28:48.912Z,5.55
2022-10-24T16:31:24.123Z,6.82
2022-10-24T16:33:52.470Z,6.28
2022-10-24T16:36:22.321Z,6.40
2022-10-24T16:38:52.488Z,6.60
2022-10-24T16:41:23.534Z,6.43
2022-10-24T16:43:53.914Z,5.93
2022-10-24T16:46:22.245Z,6.22
2022-10-24T16:48:50.120Z,6.35
2022-10-24T16:51:27.758Z,6.43
2022-10-24T16:53:54.906Z,6.75
2022-10-24T16:56:22.031Z,6.50
2022-10-24T16:58:49.338Z,6.68
2022-10-24T17:01:17.163Z,6.68
2022-10-24T17:03:47.411Z,7.38
2022-10-24T17:06:14.867Z,6.88
2022-10-24T17:08:41.984Z,7.65
2022-10-24T17:11:32.597Z,6.72
2022-10-24T17:13:58.878Z,7.47
2022-10-24T17:16:26.580Z,7.38
2022-10-24T17:19:05.564Z,8.40
2022-10-24T17:21:42.119Z,6.80
2022-10-24T17:24:13.667Z,7.18
2022-10-24T17:26:42.154Z,7.35
2022-10-24T17:29:15.384Z,7.13
2022-10-24T17:31:42.561Z,5.93
2022-10-24T17:34:10.484Z,6.43
2022-10-24T17:36:39.281Z,6.00
2022-10-24T17:39:10.340Z,6.32
2022-10-24T17:41:40.906Z,4.93
2022-10-24T17:44:15.959Z,5.50
2022-10-24T17:46:43.787Z,5.25
2022-10-24T17:49:11.493Z,5.25
2022-10-24T17:51:41.129Z,4.60
2022-10-24T17:54:10.903Z,4.78
2022-10-24T17:56:38.000Z,4.30
2022-10-24T17:59:05.097Z,4.22
2022-10-24T18:01:32.318Z,3.88
2022-10-24T18:03:59.525Z,4.15
2022-10-24T18:06:26.780Z,4.18
2022-10-24T18:08:55.003Z,3.70
2022-10-24T18:11:22.075Z,3.10
2022-10-24T18:13:49.247Z,3.28
2022-10-24T18:16:18.275Z,3.15
2022-10-24T18:18:46.728Z,3.28
2022-10-24T18:23:53.139Z,2.80
2022-10-24T18:26:22.847Z,3.22
2022-10-24T18:28:52.225Z,2.75
2022-10-24T18:31:25.166Z,2.92
2022-10-24T18:33:52.979Z,2.80
2022-10-24T18:36:23.435Z,2.60
2022-10-24T18:38:51.980Z,3.80
2022-10-24T18:41:28.885Z,4.18
2022-10-24T18:43:57.321Z,3.67
2022-10-24T18:46:25.430Z,3.53
2022-10-24T18:48:53.376Z,3.22
2022-10-24T18:51:37.873Z,3.30
2022-10-24T18:54:07.493Z,3.17
2022-10-24T18:56:35.992Z,3.83
2022-10-24T18:59:03.321Z,3.95
2022-10-24T19:01:42.570Z,3.67
2022-10-24T19:04:24.408Z,3.55
2022-10-24T19:06:55.766Z,3.63
2022-10-24T19:09:25.678Z,4.20
2022-10-24T19:11:53.281Z,4.20
2022-10-24T19:14:21.306Z,3.70
2022-10-24T19:16:50.629Z,3.58
2022-10-24T19:19:29.305Z,4.15
2022-10-24T19:21:57.012Z,4.82
2022-10-24T19:24:24.598Z,3.85
2022-10-24T19:26:52.045Z,4.13
2022-10-24T19:29:19.321Z,3.58
2022-10-24T19:31:46.507Z,4.88
2022-10-24T19:34:13.752Z,3.67
2022-10-24T19:36:40.908Z,3.65
2022-10-24T19:39:09.676Z,3.42
2022-10-24T19:41:37.503Z,3.30
2022-10-24T19:44:05.271Z,3.55
2022-10-24T19:46:32.583Z,3.20
2022-10-24T19:48:59.684Z,2.80
2022-10-24T19:51:26.749Z,3.20
2022-10-24T19:53:54.411Z,3.00
2022-10-24T19:56:25.411Z,2.70
2022-10-24T19:58:54.130Z,2.97
2022-10-24T20:01:24.070Z,3.00
2022-10-24T20:03:51.904Z,3.10
2022-10-24T20:06:19.767Z,2.95
2022-10-24T20:08:47.938Z,2.50
2022-10-24T20:11:16.123Z,2.70
2022-10-24T20:13:44.341Z,2.53
2022-10-24T20:16:11.906Z,2.15
2022-10-24T20:21:17.854Z,2.08
2022-10-24T20:23:47.314Z,2.42
2022-10-24T20:26:19.562Z,2.47
2022-10-24T20:28:48.859Z,2.22
2022-10-24T20:31:23.633Z,2.63
2022-10-24T20:33:51.360Z,2.35
2022-10-24T20:36:18.933Z,2.50
2022-10-24T20:38:46.270Z,2.15
2022-10-24T20:41:13.773Z,2.67
2022-10-24T20:43:40.863Z,2.35
2022-10-24T20:46:08.483Z,2.03
2022-10-24T20:48:36.767Z,2.22
2022-10-24T20:51:09.371Z,2.70
2022-10-24T20:53:36.953Z,2.38
2022-10-24T20:56:13.031Z,2.67
2022-10-24T20:58:41.917Z,2.95
2022-10-24T21:01:15.137Z,2.60
2022-10-24T21:03:43.549Z,2.50
2022-10-24T21:06:19.898Z,2.08
2022-10-24T21:08:51.756Z,2.35
2022-10-24T21:11:25.318Z,2.45
2022-10-24T21:13:54.757Z,3.00
2022-10-24T21:16:22.391Z,2.72
2022-10-24T21:18:49.723Z,2.80
2022-10-24T21:21:17.617Z,2.42
2022-10-24T21:23:45.129Z,2.67
2022-10-24T21:26:14.754Z,3.05
2022-10-24T21:28:42.142Z,2.65
2022-10-24T21:31:13.306Z,2.72
2022-10-24T21:33:43.567Z,2.50
2022-10-24T21:36:13.807Z,2.83
2022-10-24T21:38:42.185Z,2.40
2022-10-24T21:41:11.038Z,2.95
2022-10-24T21:43:41.046Z,2.38
2022-10-24T21:46:14.587Z,2.30
2022-10-24T21:48:42.720Z,2.42
2022-10-24T21:51:19.173Z,2.90
2022-10-24T21:53:52.895Z,2.70
2022-10-24T21:56:23.326Z,2.60
2022-10-24T21:58:56.043Z,2.70
2022-10-24T22:01:27.907Z,2.22
2022-10-24T22:03:56.619Z,2.35
2022-10-24T22:06:24.309Z,2.42
2022-10-24T22:08:52.571Z,2.10
2022-10-24T22:11:21.765Z,2.03
2022-10-24T22:13:49.675Z,2.00
2022-10-24T22:16:19.046Z,2.47
2022-10-24T22:18:46.640Z,2.10
2022-10-24T22:21:40.693Z,1.90
2022-10-24T22:24:14.229Z,2.00
2022-10-24T22:26:41.653Z,2.05
2022-10-24T22:29:10.169Z,1.70
2022-10-24T22:31:37.737Z,1.65
2022-10-24T22:34:05.230Z,1.52
2022-10-24T22:36:56.507Z,1.75
2022-10-24T22:39:25.637Z,1.60
2022-10-24T22:41:53.390Z,2.28
2022-10-24T22:44:21.443Z,1.80
2022-10-24T22:46:56.176Z,1.60
2022-10-24T22:49:23.208Z,1.55
2022-10-24T22:51:50.799Z,1.70
2022-10-24T22:54:22.932Z,1.50
2022-10-24T22:56:50.289Z,1.58
2022-10-24T22:59:17.870Z,1.60
2022-10-24T23:02:08.228Z,1.92
2022-10-24T23:04:41.395Z,1.63
2022-10-24T23:07:30.748Z,1.90
2022-10-24T23:09:57.896Z,1.48
2022-10-24T23:12:25.158Z,2.30
2022-10-24T23:14:53.574Z,2.58
2022-10-24T23:17:26.544Z,2.17
2022-10-24T23:19:55.057Z,2.55
2022-10-24T23:22:30.567Z,2.47
2022-10-24T23:25:00.857Z,2.45
2022-10-24T23:27:34.426Z,2.30
2022-10-24T23:30:14.764Z,2.38
2022-10-24T23:32:42.032Z,3.35
2022-10-24T23:35:12.249Z,2.75
2022-10-24T23:37:44.550Z,3.58
2022-10-24T23:40:22.389Z,3.13
2022-10-24T23:42:50.771Z,3.08
2022-10-24T23:45:22.036Z,2.80
2022-10-24T23:48:10.166Z,2.60
2022-10-24T23:51:05.003Z,3.28
2022-10-24T23:53:50.382Z,2.90
2022-10-24T23:56:20.967Z,2.67
2022-10-24T23:58:48.491Z,3.17
